createdAt,value
2017-02-28T00:00:23.797Z,0
2017-02-28T00:01:33.993Z,0
2017-02-28T00:02:44.192Z,0
2017-02-28T00:03:54.376Z,0
2017-02-28T00:05:04.554Z,0
2017-02-28T00:06:14.343Z,0
2017-02-28T00:07:24.539Z,0
2017-02-28T00:08:34.738Z,0
2017-02-28T00:09:44.503Z,0
2017-02-28T00:10:54.711Z,0
2017-02-28T00:12:04.521Z,0
2017-02-28T00:13:15.177Z,0
2017-02-28T00:14:25.366Z,0
2017-02-28T00:15:35.556Z,0
2017-02-28T00:16:45.738Z,0
2017-02-28T00:17:55.534Z,0
2017-02-28T00:19:05.291Z,0
2017-02-28T00:20:15.041Z,0
2017-02-28T00:21:25.225Z,0
2017-02-28T00:22:36.300Z,0
2017-02-28T00:23:46.111Z,0
2017-02-28T00:24:57.170Z,0
2017-02-28T00:26:07.347Z,0
2017-02-28T00:27:17.099Z,0
2017-02-28T00:28:28.170Z,0
2017-02-28T00:29:38.607Z,0
2017-02-28T00:30:48.355Z,0
2017-02-28T00:31:58.108Z,0
2017-02-28T00:33:09.597Z,0
2017-02-28T00:34:20.240Z,0
2017-02-28T00:35:30.688Z,0
2017-02-28T00:36:40.866Z,0
2017-02-28T00:37:50.619Z,0
2017-02-28T00:38:59.942Z,0
2017-02-28T00:40:09.690Z,0
2017-02-28T00:41:19.085Z,0
2017-02-28T00:42:29.276Z,0
2017-02-28T00:43:39.461Z,0
2017-02-28T00:44:50.114Z,0
2017-02-28T00:45:59.883Z,0
2017-02-28T00:47:10.140Z,0
2017-02-28T00:48:19.480Z,0
2017-02-28T00:49:29.681Z,0
2017-02-28T00:50:40.303Z,0
2017-02-28T00:51:50.505Z,0
2017-02-28T00:53:01.165Z,0
2017-02-28T00:54:11.830Z,0
2017-02-28T00:55:22.471Z,0
2017-02-28T00:56:33.121Z,0
2017-02-28T00:57:43.302Z,0
2017-02-28T00:58:53.104Z,0
2017-02-28T01:00:03.336Z,0
2017-02-28T01:01:14.394Z,0
2017-02-28T01:02:24.578Z,0
2017-02-28T01:03:34.799Z,0
2017-02-28T01:04:45.463Z,0
2017-02-28T01:05:55.280Z,0
2017-02-28T01:07:05.033Z,0
2017-02-28T01:08:14.805Z,0
2017-02-28T01:09:24.553Z,0
2017-02-28T01:10:34.796Z,0
2017-02-28T01:11:45.416Z,0
2017-02-28T01:12:56.077Z,0
2017-02-28T01:14:06.271Z,0
2017-02-28T01:15:16.469Z,0
2017-02-28T01:16:26.278Z,0
2017-02-28T01:17:35.595Z,0
2017-02-28T01:18:45.396Z,0
2017-02-28T01:19:55.152Z,0
2017-02-28T01:21:05.339Z,0
2017-02-28T01:22:15.148Z,0
2017-02-28T01:23:25.359Z,0
2017-02-28T01:24:35.563Z,0
2017-02-28T01:25:46.186Z,0
2017-02-28T01:26:56.820Z,0
2017-02-28T01:28:07.064Z,0
2017-02-28T01:29:17.702Z,0
2017-02-28T01:30:27.455Z,0
2017-02-28T01:31:38.100Z,0
2017-02-28T01:32:49.173Z,0
2017-02-28T01:33:59.412Z,0
2017-02-28T01:35:09.167Z,0
2017-02-28T01:36:19.804Z,0
2017-02-28T01:37:30.426Z,0
2017-02-28T01:38:40.645Z,0
2017-02-28T01:39:50.897Z,0
2017-02-28T01:41:01.086Z,0
2017-02-28T01:42:10.859Z,0
2017-02-28T01:43:21.073Z,0
2017-02-28T01:44:30.396Z,0
2017-02-28T01:45:41.077Z,0
2017-02-28T01:46:50.389Z,0
2017-02-28T01:47:59.692Z,0
2017-02-28T01:49:10.322Z,0
2017-02-28T01:50:20.076Z,0
2017-02-28T01:51:30.089Z,0
2017-02-28T01:52:40.738Z,0
2017-02-28T01:53:50.510Z,0
2017-02-28T01:55:01.155Z,0
2017-02-28T01:56:11.349Z,0
2017-02-28T01:57:21.753Z,0
2017-02-28T01:58:31.938Z,0
2017-02-28T01:59:42.119Z,0
2017-02-28T02:00:52.293Z,0
2017-02-28T02:02:02.499Z,0
2017-02-28T02:03:11.897Z,0
2017-02-28T02:04:21.661Z,0
2017-02-28T02:05:31.854Z,0
2017-02-28T02:06:41.618Z,0
2017-02-28T02:07:51.823Z,0
2017-02-28T02:09:01.626Z,0
2017-02-28T02:10:11.805Z,0
2017-02-28T02:11:21.587Z,0
2017-02-28T02:12:31.380Z,0
2017-02-28T02:13:42.003Z,0
2017-02-28T02:14:52.231Z,0
2017-02-28T02:16:01.979Z,0
2017-02-28T02:17:12.161Z,0
2017-02-28T02:18:22.783Z,0
2017-02-28T02:19:32.982Z,0
2017-02-28T02:20:43.668Z,0
2017-02-28T02:21:53.841Z,0
2017-02-28T02:23:03.631Z,0
2017-02-28T02:24:12.963Z,0
2017-02-28T02:25:23.204Z,0
2017-02-28T02:26:33.031Z,0
2017-02-28T02:27:42.347Z,0
2017-02-28T02:28:53.005Z,0
2017-02-28T02:30:02.774Z,0
2017-02-28T02:31:12.979Z,0
2017-02-28T02:32:22.368Z,0
2017-02-28T02:33:32.582Z,0
2017-02-28T02:34:42.334Z,0
2017-02-28T02:35:51.659Z,0
2017-02-28T02:37:00.995Z,0
2017-02-28T02:38:11.709Z,0
2017-02-28T02:39:21.039Z,0
2017-02-28T02:40:30.359Z,0
2017-02-28T02:41:39.685Z,0
2017-02-28T02:42:49.004Z,0
2017-02-28T02:43:59.684Z,0
2017-02-28T02:45:09.016Z,0
2017-02-28T02:46:19.236Z,0
2017-02-28T02:47:28.551Z,0
2017-02-28T02:48:37.915Z,0
2017-02-28T02:49:47.748Z,0
2017-02-28T02:50:57.957Z,0
2017-02-28T02:52:08.154Z,0
2017-02-28T02:53:17.917Z,0
2017-02-28T02:54:27.244Z,0
2017-02-28T02:55:37.058Z,0
2017-02-28T02:56:46.834Z,0
2017-02-28T02:57:57.060Z,0
2017-02-28T02:59:07.270Z,0
2017-02-28T03:00:16.591Z,0
2017-02-28T03:01:25.968Z,0
2017-02-28T03:02:35.305Z,0
2017-02-28T03:03:44.679Z,0
2017-02-28T03:04:54.024Z,0
2017-02-28T03:06:03.401Z,0
2017-02-28T03:07:12.782Z,0
2017-02-28T03:08:22.103Z,0
2017-02-28T03:09:31.444Z,0
2017-02-28T03:10:40.789Z,0
2017-02-28T03:11:50.111Z,0
2017-02-28T03:12:59.468Z,0
2017-02-28T03:14:08.808Z,0
2017-02-28T03:15:18.575Z,0
2017-02-28T03:16:27.919Z,0
2017-02-28T03:17:37.684Z,0
2017-02-28T03:18:47.084Z,0
2017-02-28T03:19:56.858Z,0
2017-02-28T03:21:06.180Z,0
2017-02-28T03:22:15.948Z,0
2017-02-28T03:23:25.278Z,0
2017-02-28T03:24:34.687Z,0
2017-02-28T03:25:44.892Z,0
2017-02-28T03:26:54.653Z,0
2017-02-28T03:28:04.418Z,0
2017-02-28T03:29:13.767Z,0
2017-02-28T03:30:23.608Z,0
2017-02-28T03:31:34.257Z,0
2017-02-28T03:32:43.579Z,0
2017-02-28T03:33:52.923Z,0
2017-02-28T03:35:03.129Z,0
2017-02-28T03:36:12.956Z,0
2017-02-28T03:37:23.163Z,0
2017-02-28T03:38:32.920Z,0
2017-02-28T03:39:43.565Z,0
2017-02-28T03:40:52.882Z,0
2017-02-28T03:42:02.259Z,0
2017-02-28T03:43:11.569Z,0
2017-02-28T03:44:20.902Z,0
2017-02-28T03:45:30.659Z,0
2017-02-28T03:46:40.016Z,0
2017-02-28T03:47:49.838Z,0
2017-02-28T03:48:59.182Z,0
2017-02-28T03:50:08.939Z,0
2017-02-28T03:51:18.255Z,0
2017-02-28T03:52:28.024Z,0
2017-02-28T03:53:38.290Z,0
2017-02-28T03:54:48.070Z,0
2017-02-28T03:55:57.385Z,0
2017-02-28T03:57:06.702Z,0
2017-02-28T03:58:16.022Z,0
2017-02-28T03:59:25.416Z,0
2017-02-28T04:00:35.192Z,0
2017-02-28T04:01:45.394Z,0
2017-02-28T04:02:54.727Z,0
2017-02-28T04:04:04.041Z,0
2017-02-28T04:05:13.886Z,0
2017-02-28T04:06:23.206Z,0
2017-02-28T04:07:32.564Z,0
2017-02-28T04:08:41.912Z,0
2017-02-28T04:09:52.121Z,0
2017-02-28T04:11:01.927Z,0
2017-02-28T04:12:11.693Z,0
2017-02-28T04:13:21.458Z,0
2017-02-28T04:14:30.791Z,0
2017-02-28T04:15:40.117Z,0
2017-02-28T04:16:49.537Z,0
2017-02-28T04:17:58.847Z,0
2017-02-28T04:19:08.180Z,0
2017-02-28T04:20:17.498Z,0
2017-02-28T04:21:26.843Z,0
2017-02-28T04:22:36.220Z,0
2017-02-28T04:23:45.533Z,0
2017-02-28T04:24:55.318Z,0
2017-02-28T04:26:05.956Z,0
2017-02-28T04:27:15.288Z,0
2017-02-28T04:28:25.110Z,0
2017-02-28T04:29:34.427Z,0
2017-02-28T04:30:44.629Z,0
2017-02-28T04:31:54.390Z,0
2017-02-28T04:33:03.718Z,0
2017-02-28T04:34:13.984Z,0
2017-02-28T04:35:23.297Z,0
2017-02-28T04:36:33.063Z,0
2017-02-28T04:37:42.400Z,0
2017-02-28T04:38:52.173Z,0
2017-02-28T04:40:01.544Z,0
2017-02-28T04:41:11.319Z,0
2017-02-28T04:42:20.649Z,0
2017-02-28T04:43:29.986Z,0
2017-02-28T04:44:39.756Z,0
2017-02-28T04:45:49.579Z,0
2017-02-28T04:46:59.373Z,0
2017-02-28T04:48:08.719Z,0
2017-02-28T04:49:18.964Z,0
2017-02-28T04:50:28.285Z,0
2017-02-28T04:51:37.702Z,0
2017-02-28T04:52:47.032Z,0
2017-02-28T04:53:56.385Z,0
2017-02-28T04:55:05.730Z,0
2017-02-28T04:56:15.063Z,0
2017-02-28T04:57:24.888Z,0
2017-02-28T04:58:34.205Z,0
2017-02-28T04:59:43.555Z,0
2017-02-28T05:00:53.760Z,0
2017-02-28T05:02:03.073Z,0
2017-02-28T05:03:12.607Z,0
2017-02-28T05:04:22.380Z,0
2017-02-28T05:05:31.711Z,0
2017-02-28T05:06:41.470Z,0
2017-02-28T05:07:50.792Z,0
2017-02-28T05:09:00.601Z,0
2017-02-28T05:10:09.926Z,0
2017-02-28T05:11:19.267Z,0
2017-02-28T05:12:29.032Z,0
2017-02-28T05:13:38.393Z,0
2017-02-28T05:14:47.786Z,0
2017-02-28T05:15:57.115Z,0
2017-02-28T05:17:06.432Z,0
2017-02-28T05:18:15.755Z,0
2017-02-28T05:19:25.512Z,0
2017-02-28T05:20:34.884Z,0
2017-02-28T05:21:44.210Z,0
2017-02-28T05:22:54.863Z,0
2017-02-28T05:24:04.192Z,0
2017-02-28T05:25:13.509Z,0
2017-02-28T05:26:22.878Z,0
2017-02-28T05:27:32.212Z,0
2017-02-28T05:28:41.545Z,0
2017-02-28T05:29:50.858Z,0
2017-02-28T05:31:00.187Z,0
2017-02-28T05:32:09.572Z,0
2017-02-28T05:33:19.348Z,0
2017-02-28T05:34:29.551Z,0
2017-02-28T05:35:38.868Z,0
2017-02-28T05:36:48.217Z,0
2017-02-28T05:37:58.017Z,0
2017-02-28T05:39:07.347Z,0
2017-02-28T05:40:16.669Z,0
2017-02-28T05:41:26.861Z,0
2017-02-28T05:42:36.611Z,0
2017-02-28T05:43:45.985Z,0
2017-02-28T05:44:55.334Z,0
2017-02-28T05:46:05.107Z,4
2017-02-28T05:47:14.447Z,4
2017-02-28T05:48:24.228Z,4
2017-02-28T05:49:34.058Z,4
2017-02-28T05:50:43.812Z,4
2017-02-28T05:51:53.129Z,8
2017-02-28T05:53:02.458Z,8
2017-02-28T05:54:11.790Z,8
2017-02-28T05:55:21.170Z,8
2017-02-28T05:56:30.500Z,12
2017-02-28T05:57:40.294Z,20
2017-02-28T05:58:49.604Z,20
2017-02-28T05:59:58.921Z,20
2017-02-28T06:01:08.733Z,20
2017-02-28T06:02:18.503Z,20
2017-02-28T06:03:27.816Z,20
2017-02-28T06:04:37.141Z,28
2017-02-28T06:05:46.467Z,28
2017-02-28T06:06:55.832Z,36
2017-02-28T06:08:05.589Z,56
2017-02-28T06:09:16.257Z,68
2017-02-28T06:10:26.015Z,80
2017-02-28T06:11:35.793Z,80
2017-02-28T06:12:45.206Z,88
2017-02-28T06:13:55.409Z,92
2017-02-28T06:15:05.632Z,104
2017-02-28T06:16:15.009Z,112
2017-02-28T06:17:24.350Z,128
2017-02-28T06:18:33.747Z,128
2017-02-28T06:19:43.497Z,136
2017-02-28T06:20:52.830Z,140
2017-02-28T06:22:02.158Z,148
2017-02-28T06:23:11.916Z,152
2017-02-28T06:24:21.312Z,164
2017-02-28T06:25:31.502Z,172
2017-02-28T06:26:40.850Z,180
2017-02-28T06:27:51.049Z,188
2017-02-28T06:29:01.270Z,192
2017-02-28T06:30:11.123Z,204
2017-02-28T06:31:20.892Z,216
2017-02-28T06:32:30.650Z,220
2017-02-28T06:33:39.966Z,228
2017-02-28T06:34:49.280Z,244
2017-02-28T06:35:59.117Z,248
2017-02-28T06:37:08.894Z,264
2017-02-28T06:38:18.235Z,276
2017-02-28T06:39:27.552Z,292
2017-02-28T06:40:36.873Z,304
2017-02-28T06:41:46.247Z,312
2017-02-28T06:42:56.020Z,324
2017-02-28T06:44:05.357Z,336
2017-02-28T06:45:15.130Z,352
2017-02-28T06:46:24.431Z,364
2017-02-28T06:47:33.828Z,376
2017-02-28T06:48:43.150Z,388
2017-02-28T06:49:52.485Z,388
2017-02-28T06:51:01.828Z,404
2017-02-28T06:52:11.168Z,420
2017-02-28T06:53:21.434Z,428
2017-02-28T06:54:30.795Z,452
2017-02-28T06:55:40.120Z,468
2017-02-28T06:56:49.886Z,472
2017-02-28T06:57:59.211Z,508
2017-02-28T06:59:09.012Z,504
2017-02-28T07:00:18.333Z,496
2017-02-28T07:01:28.089Z,512
2017-02-28T07:02:37.850Z,544
2017-02-28T07:03:48.060Z,560
2017-02-28T07:04:57.426Z,572
2017-02-28T07:06:06.760Z,588
2017-02-28T07:07:16.526Z,608
2017-02-28T07:08:26.737Z,616
2017-02-28T07:09:36.494Z,612
2017-02-28T07:10:45.855Z,624
2017-02-28T07:11:55.168Z,632
2017-02-28T07:13:04.517Z,680
2017-02-28T07:14:13.871Z,696
2017-02-28T07:15:23.188Z,708
2017-02-28T07:16:33.004Z,716
2017-02-28T07:17:42.342Z,720
2017-02-28T07:18:52.095Z,728
2017-02-28T07:20:01.428Z,732
2017-02-28T07:21:10.752Z,728
2017-02-28T07:22:21.010Z,732
2017-02-28T07:23:30.344Z,736
2017-02-28T07:24:39.656Z,740
2017-02-28T07:25:48.982Z,748
2017-02-28T07:26:58.307Z,752
2017-02-28T07:28:08.108Z,752
2017-02-28T07:29:17.449Z,764
2017-02-28T07:30:26.777Z,768
2017-02-28T07:31:36.552Z,760
2017-02-28T07:32:45.866Z,760
2017-02-28T07:33:55.242Z,772
2017-02-28T07:35:05.027Z,780
2017-02-28T07:36:14.344Z,792
2017-02-28T07:37:24.097Z,816
2017-02-28T07:38:33.438Z,828
2017-02-28T07:39:43.247Z,836
2017-02-28T07:40:53.016Z,840
2017-02-28T07:42:02.780Z,844
2017-02-28T07:43:12.547Z,840
2017-02-28T07:44:21.876Z,848
2017-02-28T07:45:31.249Z,848
2017-02-28T07:46:40.560Z,856
2017-02-28T07:47:50.335Z,864
2017-02-28T07:49:00.535Z,868
2017-02-28T07:50:09.853Z,856
2017-02-28T07:51:19.226Z,884
2017-02-28T07:52:28.539Z,880
2017-02-28T07:53:37.865Z,900
2017-02-28T07:54:47.218Z,892
2017-02-28T07:55:56.975Z,900
2017-02-28T07:57:06.468Z,920
2017-02-28T07:58:15.801Z,940
2017-02-28T07:59:25.570Z,956
2017-02-28T08:00:34.879Z,932
2017-02-28T08:01:44.223Z,932
2017-02-28T08:02:54.065Z,952
2017-02-28T08:04:04.294Z,936
2017-02-28T08:05:13.628Z,984
2017-02-28T08:06:23.431Z,956
2017-02-28T08:07:33.202Z,872
2017-02-28T08:08:43.019Z,900
2017-02-28T08:09:52.360Z,1016
2017-02-28T08:11:01.673Z,988
2017-02-28T08:12:11.016Z,1244
2017-02-28T08:13:21.235Z,1312
2017-02-28T08:14:31.087Z,992
2017-02-28T08:15:41.726Z,888
2017-02-28T08:16:51.065Z,928
2017-02-28T08:18:00.852Z,1000
2017-02-28T08:19:10.625Z,1012
2017-02-28T08:20:20.445Z,1020
2017-02-28T08:21:30.223Z,1052
2017-02-28T08:22:39.535Z,1076
2017-02-28T08:23:48.882Z,1144
2017-02-28T08:24:58.223Z,1252
2017-02-28T08:26:07.604Z,1172
2017-02-28T08:27:16.928Z,1108
2017-02-28T08:28:26.277Z,1140
2017-02-28T08:29:36.042Z,1128
2017-02-28T08:30:45.355Z,1144
2017-02-28T08:31:54.737Z,1104
2017-02-28T08:33:04.953Z,1084
2017-02-28T08:34:14.715Z,1100
2017-02-28T08:35:24.031Z,1120
2017-02-28T08:36:34.249Z,1156
2017-02-28T08:37:43.611Z,1520
2017-02-28T08:38:53.400Z,1784
2017-02-28T08:40:02.725Z,1492
2017-02-28T08:41:12.497Z,1432
2017-02-28T08:42:22.263Z,1488
2017-02-28T08:43:32.513Z,2396
2017-02-28T08:44:41.845Z,2124
2017-02-28T08:45:52.098Z,2628
2017-02-28T08:47:02.300Z,2844
2017-02-28T08:48:11.643Z,2400
2017-02-28T08:49:21.441Z,1964
2017-02-28T08:50:31.643Z,1740
2017-02-28T08:51:41.432Z,2372
2017-02-28T08:52:50.758Z,2148
2017-02-28T08:54:00.985Z,2864
2017-02-28T08:55:10.808Z,1868
2017-02-28T08:56:20.580Z,1760
2017-02-28T08:57:30.778Z,1708
2017-02-28T08:58:40.095Z,1836
2017-02-28T08:59:49.844Z,1548
2017-02-28T09:00:59.662Z,2156
2017-02-28T09:02:09.419Z,2164
2017-02-28T09:03:18.790Z,3088
2017-02-28T09:04:28.118Z,3932
2017-02-28T09:05:37.862Z,5192
2017-02-28T09:06:47.672Z,4504
2017-02-28T09:07:57.011Z,4196
2017-02-28T09:09:07.236Z,3960
2017-02-28T09:10:17.457Z,3252
2017-02-28T09:11:27.224Z,3108
2017-02-28T09:12:36.597Z,3072
2017-02-28T09:13:46.375Z,2584
2017-02-28T09:14:55.711Z,3168
2017-02-28T09:16:05.933Z,2852
2017-02-28T09:17:15.278Z,3848
2017-02-28T09:18:25.545Z,4144
2017-02-28T09:19:35.313Z,4004
2017-02-28T09:20:45.521Z,3500
2017-02-28T09:21:55.743Z,3528
2017-02-28T09:23:05.087Z,4072
2017-02-28T09:24:14.933Z,3588
2017-02-28T09:25:24.245Z,2944
2017-02-28T09:26:33.579Z,2080
2017-02-28T09:27:43.344Z,3428
2017-02-28T09:28:52.669Z,3380
2017-02-28T09:30:02.499Z,2980
2017-02-28T09:31:11.820Z,2160
2017-02-28T09:32:21.149Z,2940
2017-02-28T09:33:30.463Z,2952
2017-02-28T09:34:39.794Z,3908
2017-02-28T09:35:49.189Z,4148
2017-02-28T09:36:58.506Z,3476
2017-02-28T09:38:07.863Z,4348
2017-02-28T09:39:17.632Z,3168
2017-02-28T09:40:26.941Z,4428
2017-02-28T09:41:36.321Z,3392
2017-02-28T09:42:46.084Z,4260
2017-02-28T09:43:55.405Z,2780
2017-02-28T09:45:04.747Z,5764
2017-02-28T09:46:14.076Z,6492
2017-02-28T09:47:23.901Z,5204
2017-02-28T09:48:34.094Z,5340
2017-02-28T09:49:43.418Z,4836
2017-02-28T09:50:53.189Z,2348
2017-02-28T09:52:02.509Z,2524
2017-02-28T09:53:13.514Z,1928
2017-02-28T09:54:22.852Z,1668
2017-02-28T09:55:32.629Z,5560
2017-02-28T09:56:41.946Z,4808
2017-02-28T09:57:51.700Z,4512
2017-02-28T09:59:01.091Z,5384
2017-02-28T10:00:11.306Z,4556
2017-02-28T10:01:21.095Z,5900
2017-02-28T10:02:30.900Z,6564
2017-02-28T10:03:40.658Z,3976
2017-02-28T10:04:50.466Z,5576
2017-02-28T10:05:59.780Z,6140
2017-02-28T10:07:10.009Z,6556
2017-02-28T10:08:19.334Z,7012
2017-02-28T10:09:29.088Z,4252
2017-02-28T10:10:38.475Z,3692
2017-02-28T10:11:47.806Z,4404
2017-02-28T10:12:58.019Z,3988
2017-02-28T10:14:07.796Z,4080
2017-02-28T10:15:17.193Z,4356
2017-02-28T10:16:26.566Z,3836
2017-02-28T10:17:35.904Z,3800
2017-02-28T10:18:45.225Z,2936
2017-02-28T10:19:54.994Z,3144
2017-02-28T10:21:04.327Z,3444
2017-02-28T10:22:13.695Z,3164
2017-02-28T10:23:24.345Z,6688
2017-02-28T10:24:33.737Z,5380
2017-02-28T10:25:43.532Z,4832
2017-02-28T10:26:52.847Z,8704
2017-02-28T10:28:02.662Z,5960
2017-02-28T10:29:11.988Z,4632
2017-02-28T10:30:21.329Z,5676
2017-02-28T10:31:31.094Z,5524
2017-02-28T10:32:40.425Z,4976
2017-02-28T10:33:51.112Z,4984
2017-02-28T10:35:00.429Z,6952
2017-02-28T10:36:10.199Z,5928
2017-02-28T10:37:19.535Z,3848
2017-02-28T10:38:28.869Z,3336
2017-02-28T10:39:38.702Z,2960
2017-02-28T10:40:48.028Z,3552
2017-02-28T10:41:57.816Z,3376
2017-02-28T10:43:07.194Z,3680
2017-02-28T10:44:16.959Z,4076
2017-02-28T10:45:26.340Z,3744
2017-02-28T10:46:36.113Z,5068
2017-02-28T10:47:45.439Z,5108
2017-02-28T10:48:55.218Z,4640
2017-02-28T10:50:05.437Z,10204
2017-02-28T10:51:14.808Z,3432
2017-02-28T10:52:24.134Z,3192
2017-02-28T10:53:33.444Z,3808
2017-02-28T10:54:43.862Z,3620
2017-02-28T10:55:53.175Z,3464
2017-02-28T10:57:02.580Z,3352
2017-02-28T10:58:11.892Z,4456
2017-02-28T10:59:21.666Z,10168
2017-02-28T11:00:31.419Z,9072
2017-02-28T11:01:40.756Z,8284
2017-02-28T11:02:50.121Z,3500
2017-02-28T11:03:59.450Z,3380
2017-02-28T11:05:08.812Z,3768
2017-02-28T11:06:18.604Z,5344
2017-02-28T11:07:28.814Z,3492
2017-02-28T11:08:38.648Z,3164
2017-02-28T11:09:48.401Z,4884
2017-02-28T11:10:58.154Z,4704
2017-02-28T11:12:07.955Z,4440
2017-02-28T11:13:17.265Z,3852
2017-02-28T11:14:26.734Z,3216
2017-02-28T11:15:36.055Z,3252
2017-02-28T11:16:45.368Z,3216
2017-02-28T11:17:54.716Z,2988
2017-02-28T11:19:04.906Z,2448
2017-02-28T11:20:14.307Z,2636
2017-02-28T11:21:23.639Z,3024
2017-02-28T11:22:33.394Z,3224
2017-02-28T11:23:42.731Z,4008
2017-02-28T11:24:52.055Z,4376
2017-02-28T11:26:01.966Z,4192
2017-02-28T11:27:11.275Z,3124
2017-02-28T11:28:20.602Z,3028
2017-02-28T11:29:30.369Z,3100
2017-02-28T11:30:40.134Z,4176
2017-02-28T11:31:49.519Z,4480
2017-02-28T11:32:58.856Z,5904
2017-02-28T11:34:08.618Z,5708
2017-02-28T11:35:17.939Z,3776
2017-02-28T11:36:28.156Z,4704
2017-02-28T11:37:37.545Z,5608
2017-02-28T11:38:46.898Z,3852
2017-02-28T11:39:56.239Z,2568
2017-02-28T11:41:05.999Z,2648
2017-02-28T11:42:15.792Z,9032
2017-02-28T11:43:25.767Z,4204
2017-02-28T11:44:35.089Z,8132
2017-02-28T11:45:44.853Z,7860
2017-02-28T11:46:54.164Z,7968
2017-02-28T11:48:03.492Z,8080
2017-02-28T11:49:12.907Z,9420
2017-02-28T11:50:23.110Z,7912
2017-02-28T11:51:32.879Z,8932
2017-02-28T11:52:42.204Z,7800
2017-02-28T11:53:51.959Z,3284
2017-02-28T11:55:01.791Z,2928
2017-02-28T11:56:11.604Z,2756
2017-02-28T11:57:21.373Z,2508
2017-02-28T11:58:30.689Z,3136
2017-02-28T11:59:40.451Z,2040
2017-02-28T12:00:50.284Z,4880
2017-02-28T12:02:00.048Z,2856
2017-02-28T12:03:09.815Z,4144
2017-02-28T12:04:19.140Z,2876
2017-02-28T12:05:28.921Z,1784
2017-02-28T12:06:38.304Z,1692
2017-02-28T12:07:48.518Z,1980
2017-02-28T12:08:57.864Z,2692
2017-02-28T12:10:07.174Z,3264
2017-02-28T12:11:16.947Z,2224
2017-02-28T12:12:26.767Z,1644
2017-02-28T12:13:36.081Z,1828
2017-02-28T12:14:45.846Z,5876
2017-02-28T12:15:55.160Z,6292
2017-02-28T12:17:04.500Z,7392
2017-02-28T12:18:13.870Z,7420
2017-02-28T12:19:23.199Z,1952
2017-02-28T12:20:32.972Z,1764
2017-02-28T12:21:42.324Z,2860
2017-02-28T12:22:52.122Z,2868
2017-02-28T12:24:01.514Z,4044
2017-02-28T12:25:11.267Z,6564
2017-02-28T12:26:21.042Z,1748
2017-02-28T12:27:30.799Z,2076
2017-02-28T12:28:40.116Z,7280
2017-02-28T12:29:49.516Z,6600
2017-02-28T12:30:59.715Z,4664
2017-02-28T12:32:09.056Z,6796
2017-02-28T12:33:18.865Z,2156
2017-02-28T12:34:28.654Z,3048
2017-02-28T12:35:38.480Z,2200
2017-02-28T12:36:48.269Z,6816
2017-02-28T12:37:57.605Z,2892
2017-02-28T12:39:06.951Z,6912
2017-02-28T12:40:16.720Z,8812
2017-02-28T12:41:26.085Z,9132
2017-02-28T12:42:35.843Z,4924
2017-02-28T12:43:45.644Z,7000
2017-02-28T12:44:54.985Z,7340
2017-02-28T12:46:04.751Z,6832
2017-02-28T12:47:14.555Z,7212
2017-02-28T12:48:23.880Z,6616
2017-02-28T12:49:33.650Z,3932
2017-02-28T12:50:43.891Z,3460
2017-02-28T12:51:53.660Z,2988
2017-02-28T12:53:03.481Z,8072
2017-02-28T12:54:13.246Z,7960
2017-02-28T12:55:22.992Z,2764
2017-02-28T12:56:32.323Z,1592
2017-02-28T12:57:42.538Z,2464
2017-02-28T12:58:51.900Z,2484
2017-02-28T13:00:01.213Z,2372
2017-02-28T13:01:10.560Z,5812
2017-02-28T13:02:20.767Z,7408
2017-02-28T13:03:30.112Z,6200
2017-02-28T13:04:39.496Z,6460
2017-02-28T13:05:49.257Z,7368
2017-02-28T13:06:59.471Z,3620
2017-02-28T13:08:09.217Z,2984
2017-02-28T13:09:18.538Z,2348
2017-02-28T13:10:28.355Z,5676
2017-02-28T13:11:37.683Z,5652
2017-02-28T13:12:47.022Z,3008
2017-02-28T13:13:56.803Z,2004
2017-02-28T13:15:07.024Z,4984
2017-02-28T13:16:16.460Z,5096
2017-02-28T13:17:26.238Z,4948
2017-02-28T13:18:36.010Z,4712
2017-02-28T13:19:46.224Z,1656
2017-02-28T13:20:55.556Z,1444
2017-02-28T13:22:04.967Z,2096
2017-02-28T13:23:14.297Z,1864
2017-02-28T13:24:23.606Z,1596
2017-02-28T13:25:33.374Z,1840
2017-02-28T13:26:43.128Z,1680
2017-02-28T13:27:52.945Z,2128
2017-02-28T13:29:02.706Z,2168
2017-02-28T13:30:12.471Z,3420
2017-02-28T13:31:21.781Z,3300
2017-02-28T13:32:31.102Z,2248
2017-02-28T13:33:41.355Z,3064
2017-02-28T13:34:50.668Z,3864
2017-02-28T13:36:00.444Z,2308
2017-02-28T13:37:10.639Z,2048
2017-02-28T13:38:19.984Z,2668
2017-02-28T13:39:29.369Z,2452
2017-02-28T13:40:38.721Z,1940
2017-02-28T13:41:48.487Z,2100
2017-02-28T13:42:57.808Z,2680
2017-02-28T13:44:07.124Z,2540
2017-02-28T13:45:17.370Z,2888
2017-02-28T13:46:26.716Z,2420
2017-02-28T13:47:36.042Z,2952
2017-02-28T13:48:45.370Z,3400
2017-02-28T13:49:54.707Z,2864
2017-02-28T13:51:04.528Z,2568
2017-02-28T13:52:13.848Z,2792
2017-02-28T13:53:23.610Z,2820
2017-02-28T13:54:33.824Z,3324
2017-02-28T13:55:43.160Z,3360
2017-02-28T13:56:52.967Z,3276
2017-02-28T13:58:03.184Z,3324
2017-02-28T13:59:13.408Z,3292
2017-02-28T14:00:22.746Z,3312
2017-02-28T14:01:32.550Z,3380
2017-02-28T14:02:42.397Z,3420
2017-02-28T14:03:52.166Z,3408
2017-02-28T14:05:01.511Z,3408
2017-02-28T14:06:11.284Z,3412
2017-02-28T14:07:21.057Z,3456
2017-02-28T14:08:30.415Z,3436
2017-02-28T14:09:40.202Z,3420
2017-02-28T14:10:50.428Z,3360
2017-02-28T14:11:59.749Z,3340
2017-02-28T14:13:09.067Z,3244
2017-02-28T14:14:18.875Z,3172
2017-02-28T14:15:28.212Z,3100
2017-02-28T14:16:37.979Z,3076
2017-02-28T14:17:47.304Z,3080
2017-02-28T14:18:57.513Z,3068
2017-02-28T14:20:07.326Z,3100
2017-02-28T14:21:16.664Z,3124
2017-02-28T14:22:26.005Z,3152
2017-02-28T14:23:35.769Z,3212
2017-02-28T14:24:45.995Z,3284
2017-02-28T14:25:55.368Z,3304
2017-02-28T14:27:05.172Z,3288
2017-02-28T14:28:15.386Z,3264
2017-02-28T14:29:24.752Z,3268
2017-02-28T14:30:34.513Z,3256
2017-02-28T14:31:44.318Z,3200
2017-02-28T14:32:53.639Z,3080
2017-02-28T14:34:02.976Z,2960
2017-02-28T14:35:12.286Z,2912
2017-02-28T14:36:21.655Z,2908
2017-02-28T14:37:31.467Z,2900
2017-02-28T14:38:40.805Z,2888
2017-02-28T14:39:50.114Z,2872
2017-02-28T14:40:59.870Z,2844
2017-02-28T14:42:09.188Z,2820
2017-02-28T14:43:18.584Z,2776
2017-02-28T14:44:28.369Z,2764
2017-02-28T14:45:37.675Z,2764
2017-02-28T14:46:47.453Z,2732
2017-02-28T14:47:56.791Z,2680
2017-02-28T14:49:06.172Z,2572
2017-02-28T14:50:15.496Z,2480
2017-02-28T14:51:24.818Z,2496
2017-02-28T14:52:34.151Z,2472
2017-02-28T14:53:43.513Z,2492
2017-02-28T14:54:52.906Z,2544
2017-02-28T14:56:02.222Z,2392
2017-02-28T14:57:12.432Z,2356
2017-02-28T14:58:21.756Z,2356
2017-02-28T14:59:31.514Z,2280
2017-02-28T15:00:40.887Z,2172
2017-02-28T15:01:50.227Z,2240
2017-02-28T15:02:59.993Z,2232
2017-02-28T15:04:09.357Z,2200
2017-02-28T15:05:19.131Z,2264
2017-02-28T15:06:28.941Z,2152
2017-02-28T15:07:39.156Z,2028
2017-02-28T15:08:48.903Z,1912
2017-02-28T15:09:58.264Z,1848
2017-02-28T15:11:07.601Z,1852
2017-02-28T15:12:17.894Z,1828
2017-02-28T15:13:27.659Z,1804
2017-02-28T15:14:37.012Z,1700
2017-02-28T15:15:47.218Z,1548
2017-02-28T15:16:56.554Z,1600
2017-02-28T15:18:06.355Z,1660
2017-02-28T15:19:15.681Z,1632
2017-02-28T15:20:24.990Z,1576
2017-02-28T15:21:34.312Z,1568
2017-02-28T15:22:43.647Z,1568
2017-02-28T15:23:53.462Z,1532
2017-02-28T15:25:02.779Z,1488
2017-02-28T15:26:12.565Z,1440
2017-02-28T15:27:22.371Z,1396
2017-02-28T15:28:32.153Z,1364
2017-02-28T15:29:41.971Z,1340
2017-02-28T15:30:51.321Z,1296
2017-02-28T15:32:01.104Z,1248
2017-02-28T15:33:10.859Z,1208
2017-02-28T15:34:20.188Z,1196
2017-02-28T15:35:29.576Z,1188
2017-02-28T15:36:38.918Z,1160
2017-02-28T15:37:48.686Z,1132
2017-02-28T15:38:58.441Z,1104
2017-02-28T15:40:07.762Z,1076
2017-02-28T15:41:17.599Z,1040
2017-02-28T15:42:26.916Z,1012
2017-02-28T15:43:36.684Z,988
2017-02-28T15:44:46.018Z,964
2017-02-28T15:45:55.346Z,940
2017-02-28T15:47:05.612Z,920
2017-02-28T15:48:14.928Z,896
2017-02-28T15:49:24.263Z,860
2017-02-28T15:50:33.588Z,816
2017-02-28T15:51:43.337Z,772
2017-02-28T15:52:52.914Z,744
2017-02-28T15:54:02.248Z,728
2017-02-28T15:55:11.578Z,716
2017-02-28T15:56:20.934Z,704
2017-02-28T15:57:30.699Z,696
2017-02-28T15:58:40.076Z,680
2017-02-28T15:59:49.836Z,668
2017-02-28T16:00:59.618Z,652
2017-02-28T16:02:09.390Z,636
2017-02-28T16:03:19.602Z,620
2017-02-28T16:04:28.970Z,600
2017-02-28T16:05:38.299Z,572
2017-02-28T16:06:48.071Z,552
2017-02-28T16:07:57.825Z,520
2017-02-28T16:09:07.138Z,504